Narka, Kansas
Current Conditions -  °F | °C
As of 1:15 PM on Tuesday 21 Oct 2014 (Local Time) from KHJH Reporting Station
Clear Clear  
Wind Chill: 75°   Ceiling: Unl
Heat Index: 75°   Visibility: 10mi
Dew Point: 37°   Wind: 12mph
Humidity: 25%   Direction: 200°SSW
Pressure: 30.06"   Gusts: 17mph
Location:  39.96°N, 97.43°W
Report Text: KHJH 211815Z AUTO 20010G15KT 10SM CLR 24/03 A3006 RMK AO2 T02410029
Loading
Personal Weather Stations






























Interactive Weather Map
Tropical Storm Tracking
New forecast layout! Learn more

10-Day Weather Forecast

Advertisements
Track Severe Weather on mobile